createdAt,value
2022-10-22T00:01:14.688Z,12.40
2022-10-22T00:03:41.381Z,12.50
2022-10-22T00:06:08.060Z,12.50
2022-10-22T00:08:34.712Z,12.50
2022-10-22T00:11:07.762Z,12.50
2022-10-22T00:13:34.360Z,12.50
2022-10-22T00:16:00.975Z,12.60
2022-10-22T00:18:27.574Z,12.60
2022-10-22T00:20:54.186Z,12.70
2022-10-22T00:23:21.357Z,12.70
2022-10-22T00:25:48.040Z,12.70
2022-10-22T00:28:15.213Z,12.70
2022-10-22T00:30:41.821Z,12.80
2022-10-22T00:33:08.435Z,12.80
2022-10-22T00:35:35.046Z,12.80
2022-10-22T00:38:01.756Z,12.80
2022-10-22T00:40:28.381Z,12.80
2022-10-22T00:42:55.250Z,12.70
2022-10-22T00:45:23.560Z,12.60
2022-10-22T00:48:05.387Z,12.50
2022-10-22T00:50:37.971Z,12.50
2022-10-22T00:53:06.485Z,12.50
2022-10-22T00:55:33.369Z,12.60
2022-10-22T00:58:01.293Z,12.50
2022-10-22T01:00:28.049Z,12.50
2022-10-22T01:02:55.235Z,12.50
2022-10-22T01:05:22.225Z,12.50
2022-10-22T01:07:51.067Z,12.40
2022-10-22T01:10:26.902Z,12.40
2022-10-22T01:12:57.357Z,12.40
2022-10-22T01:15:28.041Z,12.40
2022-10-22T01:18:00.290Z,12.40
2022-10-22T01:20:29.939Z,12.40
2022-10-22T01:23:13.898Z,12.40
2022-10-22T01:26:00.773Z,12.30
2022-10-22T01:28:36.151Z,12.20
2022-10-22T01:31:03.744Z,11.90
2022-10-22T01:33:30.899Z,11.60
2022-10-22T01:35:57.669Z,11.30
2022-10-22T01:38:24.960Z,11.10
2022-10-22T01:40:51.702Z,11.00
2022-10-22T01:43:18.491Z,10.90
2022-10-22T01:45:47.264Z,10.80
2022-10-22T01:48:32.737Z,10.80
2022-10-22T01:51:18.222Z,10.80
2022-10-22T01:53:53.829Z,10.70
2022-10-22T01:56:29.640Z,10.80
2022-10-22T01:59:15.573Z,10.80
2022-10-22T02:02:02.432Z,10.80
2022-10-22T02:04:58.494Z,10.80
2022-10-22T02:07:26.861Z,10.70
2022-10-22T02:09:54.858Z,10.70
2022-10-22T02:12:22.732Z,10.80
2022-10-22T02:14:50.570Z,10.70
2022-10-22T02:17:19.912Z,10.80
2022-10-22T02:19:56.944Z,10.80
2022-10-22T02:22:23.954Z,10.80
2022-10-22T02:24:50.578Z,10.80
2022-10-22T02:27:26.060Z,10.90
2022-10-22T02:29:59.816Z,10.90
2022-10-22T02:32:29.813Z,10.80
2022-10-22T02:34:56.890Z,10.80
2022-10-22T02:37:24.371Z,10.90
2022-10-22T02:39:51.520Z,10.80
2022-10-22T02:42:18.320Z,10.70
2022-10-22T02:44:44.920Z,10.80
2022-10-22T02:47:11.529Z,10.90
2022-10-22T02:49:38.137Z,10.90
2022-10-22T02:52:04.806Z,10.80
2022-10-22T02:54:31.553Z,10.90
2022-10-22T02:56:58.172Z,10.90
2022-10-22T02:59:24.795Z,10.90
2022-10-22T03:01:51.404Z,10.90
2022-10-22T03:04:18.052Z,11.00
2022-10-22T03:06:44.805Z,11.00
2022-10-22T03:09:11.544Z,11.00
2022-10-22T03:11:38.185Z,11.10
2022-10-22T03:14:04.830Z,11.00
2022-10-22T03:16:31.683Z,11.00
2022-10-22T03:18:58.273Z,10.80
2022-10-22T03:21:24.864Z,10.90
2022-10-22T03:23:51.927Z,10.90
2022-10-22T03:26:18.633Z,10.90
2022-10-22T03:28:46.729Z,10.90
2022-10-22T03:31:13.464Z,11.00
2022-10-22T03:33:40.123Z,11.00
2022-10-22T03:36:07.557Z,11.00
2022-10-22T03:38:35.625Z,10.90
2022-10-22T03:41:02.231Z,10.90
2022-10-22T03:43:28.935Z,10.90
2022-10-22T03:45:55.662Z,10.80
2022-10-22T03:48:22.288Z,10.90
2022-10-22T03:50:49.396Z,10.90
2022-10-22T03:53:16.020Z,10.90
2022-10-22T03:55:42.795Z,10.80
2022-10-22T03:58:09.530Z,10.80
2022-10-22T04:00:36.174Z,10.80
2022-10-22T04:03:02.851Z,10.80
2022-10-22T04:05:29.471Z,10.80
2022-10-22T04:07:56.141Z,10.70
2022-10-22T04:10:22.816Z,10.70
2022-10-22T04:12:49.479Z,10.60
2022-10-22T04:15:16.341Z,10.60
2022-10-22T04:17:43.535Z,10.50
2022-10-22T04:20:10.629Z,10.50
2022-10-22T04:22:37.312Z,10.60
2022-10-22T04:25:04.469Z,10.60
2022-10-22T04:27:31.918Z,10.70
2022-10-22T04:29:58.515Z,10.80
2022-10-22T04:32:25.848Z,10.80
2022-10-22T04:34:52.459Z,10.90
2022-10-22T04:37:19.175Z,10.80
2022-10-22T04:39:45.794Z,10.70
2022-10-22T04:42:12.684Z,10.70
2022-10-22T04:44:39.292Z,10.80
2022-10-22T04:47:05.902Z,10.80
2022-10-22T04:49:32.540Z,10.80
2022-10-22T04:51:59.207Z,10.90
2022-10-22T04:54:28.981Z,10.90
2022-10-22T04:56:58.852Z,10.90
2022-10-22T04:59:25.514Z,10.80
2022-10-22T05:01:52.184Z,10.80
2022-10-22T05:04:19.698Z,10.80
2022-10-22T05:06:46.936Z,10.70
2022-10-22T05:09:14.960Z,10.70
2022-10-22T05:11:45.299Z,10.70
2022-10-22T05:14:12.333Z,10.70
2022-10-22T05:16:39.160Z,10.70
2022-10-22T05:19:06.835Z,10.70
2022-10-22T05:21:34.137Z,10.60
2022-10-22T05:24:00.891Z,10.60
2022-10-22T05:26:28.418Z,10.60
2022-10-22T05:28:55.008Z,10.60
2022-10-22T05:31:21.783Z,10.60
2022-10-22T05:33:48.465Z,10.60
2022-10-22T05:36:19.577Z,10.50
2022-10-22T05:38:46.219Z,10.60
2022-10-22T05:41:13.994Z,10.60
2022-10-22T05:43:40.620Z,10.60
2022-10-22T05:46:08.441Z,10.70
2022-10-22T05:48:35.195Z,10.70
2022-10-22T05:51:09.326Z,10.70
2022-10-22T05:53:36.875Z,10.60
2022-10-22T05:56:05.351Z,10.60
2022-10-22T05:58:32.061Z,10.60
2022-10-22T06:01:03.021Z,10.70
2022-10-22T06:03:29.769Z,10.70
2022-10-22T06:05:56.385Z,10.70
2022-10-22T06:08:22.991Z,10.70
2022-10-22T06:10:49.603Z,10.80
2022-10-22T06:13:16.210Z,10.80
2022-10-22T06:15:43.390Z,10.80
2022-10-22T06:18:10.803Z,10.90
2022-10-22T06:20:37.744Z,10.90
2022-10-22T06:23:04.386Z,10.90
2022-10-22T06:25:30.992Z,10.80
2022-10-22T06:27:57.629Z,10.80
2022-10-22T06:30:24.253Z,10.60
2022-10-22T06:32:50.839Z,10.50
2022-10-22T06:35:17.549Z,10.50
2022-10-22T06:37:44.196Z,10.50
2022-10-22T06:40:11.023Z,10.50
2022-10-22T06:42:37.773Z,10.50
2022-10-22T06:45:04.826Z,10.50
2022-10-22T06:47:33.300Z,10.70
2022-10-22T06:49:59.951Z,10.70
2022-10-22T06:52:26.567Z,10.70
2022-10-22T06:54:53.163Z,10.80
2022-10-22T06:57:19.781Z,10.90
2022-10-22T06:59:46.476Z,10.90
2022-10-22T07:02:13.452Z,11.00
2022-10-22T07:04:40.146Z,11.10
2022-10-22T07:07:07.165Z,11.10
2022-10-22T07:09:33.745Z,11.20
2022-10-22T07:12:00.346Z,11.30
2022-10-22T07:14:26.940Z,11.30
2022-10-22T07:16:53.535Z,11.30
2022-10-22T07:19:20.142Z,11.30
2022-10-22T07:21:46.768Z,11.30
2022-10-22T07:24:13.461Z,11.30
2022-10-22T07:26:40.076Z,11.30
2022-10-22T07:29:06.850Z,11.30
2022-10-22T07:31:33.470Z,11.30
2022-10-22T07:34:00.111Z,11.20
2022-10-22T07:36:26.803Z,11.30
2022-10-22T07:38:55.433Z,11.30
2022-10-22T07:41:22.034Z,11.30
2022-10-22T07:43:48.625Z,11.30
2022-10-22T07:46:15.316Z,11.30
2022-10-22T07:48:42.088Z,11.40
2022-10-22T07:51:09.048Z,11.40
2022-10-22T07:53:35.736Z,11.30
2022-10-22T07:56:02.509Z,11.40
2022-10-22T07:58:29.288Z,11.40
2022-10-22T08:00:57.065Z,11.40
2022-10-22T08:03:23.985Z,11.50
2022-10-22T08:05:51.458Z,11.50
2022-10-22T08:08:18.134Z,11.60
2022-10-22T08:10:45.742Z,11.70
2022-10-22T08:13:12.345Z,11.80
2022-10-22T08:15:39.328Z,11.90
2022-10-22T08:18:06.010Z,11.90
2022-10-22T08:20:32.683Z,11.90
2022-10-22T08:22:59.496Z,11.90
2022-10-22T08:25:26.180Z,12.00
2022-10-22T08:27:52.947Z,12.00
2022-10-22T08:30:19.902Z,12.00
2022-10-22T08:32:47.679Z,12.00
2022-10-22T08:35:16.951Z,12.00
2022-10-22T08:37:44.507Z,12.10
2022-10-22T08:40:18.590Z,12.10
2022-10-22T08:42:54.947Z,12.10
2022-10-22T08:45:30.496Z,12.20
2022-10-22T08:48:00.145Z,12.30
2022-10-22T08:50:50.104Z,12.30
2022-10-22T08:53:22.078Z,12.30
2022-10-22T08:55:49.872Z,12.30
2022-10-22T08:58:29.953Z,12.30
2022-10-22T09:01:01.020Z,12.30
2022-10-22T09:03:31.485Z,12.40
2022-10-22T09:06:02.565Z,12.40
2022-10-22T09:08:29.788Z,12.50
2022-10-22T09:11:01.633Z,12.60
2022-10-22T09:13:28.987Z,12.70
2022-10-22T09:15:57.853Z,12.70
2022-10-22T09:18:41.589Z,12.70
2022-10-22T09:21:28.461Z,12.70
2022-10-22T09:23:55.023Z,12.80
2022-10-22T09:26:21.867Z,12.90
2022-10-22T09:28:51.969Z,13.00
2022-10-22T09:31:18.664Z,13.10
2022-10-22T09:33:46.173Z,13.20
2022-10-22T09:36:16.887Z,13.20
2022-10-22T09:38:50.676Z,13.20
2022-10-22T09:41:18.354Z,13.30
2022-10-22T09:43:48.320Z,13.40
2022-10-22T09:46:19.917Z,13.40
2022-10-22T09:48:55.558Z,13.40
2022-10-22T09:51:23.202Z,13.40
2022-10-22T09:53:57.162Z,13.60
2022-10-22T09:56:28.012Z,13.70
2022-10-22T09:58:58.137Z,13.80
2022-10-22T10:01:26.497Z,13.80
2022-10-22T10:03:53.415Z,13.80
2022-10-22T10:06:21.576Z,14.00
2022-10-22T10:08:48.705Z,14.10
2022-10-22T10:11:37.261Z,14.00
2022-10-22T10:14:09.881Z,14.10
2022-10-22T10:16:41.113Z,13.90
2022-10-22T10:19:13.709Z,14.00
2022-10-22T10:22:01.369Z,13.90
2022-10-22T10:24:54.221Z,14.00
2022-10-22T10:27:34.841Z,14.00
2022-10-22T10:30:15.793Z,14.10
2022-10-22T10:32:55.076Z,14.30
2022-10-22T10:35:24.773Z,14.40
2022-10-22T10:38:00.231Z,14.50
2022-10-22T10:40:29.669Z,14.60
2022-10-22T10:43:06.829Z,14.60
2022-10-22T10:45:57.313Z,14.70
2022-10-22T10:48:38.433Z,14.80
2022-10-22T10:51:23.353Z,14.90
2022-10-22T10:53:57.033Z,15.10
2022-10-22T10:56:39.348Z,15.20
2022-10-22T10:59:12.056Z,15.10
2022-10-22T11:01:50.985Z,15.00
2022-10-22T11:04:17.580Z,15.00
2022-10-22T11:06:44.801Z,14.90
2022-10-22T11:09:24.505Z,14.90
2022-10-22T11:11:53.990Z,15.00
2022-10-22T11:14:30.122Z,15.20
2022-10-22T11:17:01.664Z,15.50
2022-10-22T11:19:50.349Z,15.80
2022-10-22T11:22:26.455Z,15.70
2022-10-22T11:24:53.432Z,15.70
2022-10-22T11:27:20.010Z,15.80
2022-10-22T11:29:50.004Z,15.80
2022-10-22T11:32:20.914Z,15.60
2022-10-22T11:34:54.617Z,15.60
2022-10-22T11:37:22.120Z,15.50
2022-10-22T11:39:53.952Z,15.40
2022-10-22T11:42:31.751Z,15.50
2022-10-22T11:45:21.641Z,15.70
2022-10-22T11:48:07.444Z,15.80
2022-10-22T11:50:47.051Z,15.90
2022-10-22T11:53:13.679Z,16.20
2022-10-22T11:55:45.889Z,16.20
2022-10-22T11:58:30.558Z,16.30
2022-10-22T12:01:09.467Z,16.60
2022-10-22T12:03:40.939Z,16.50
2022-10-22T12:06:15.418Z,16.50
2022-10-22T12:08:46.465Z,16.50
2022-10-22T12:11:19.346Z,16.50
2022-10-22T12:13:58.434Z,16.60
2022-10-22T12:16:32.312Z,16.60
2022-10-22T12:19:17.178Z,16.40
2022-10-22T12:21:48.402Z,15.70
2022-10-22T12:24:16.762Z,15.40
2022-10-22T12:26:45.845Z,15.50
2022-10-22T12:29:14.202Z,15.70
2022-10-22T12:31:41.775Z,15.60
2022-10-22T12:34:12.931Z,15.70
2022-10-22T12:36:39.541Z,15.70
2022-10-22T12:39:11.348Z,15.80
2022-10-22T12:41:39.222Z,15.80
2022-10-22T12:44:06.361Z,15.70
2022-10-22T12:46:34.386Z,15.80
2022-10-22T12:49:05.328Z,15.70
2022-10-22T12:54:09.429Z,15.50
2022-10-22T12:56:37.279Z,15.50
2022-10-22T12:59:03.898Z,15.70
2022-10-22T13:01:40.049Z,15.90
2022-10-22T13:04:18.242Z,16.10
2022-10-22T13:06:49.375Z,16.50
2022-10-22T13:09:26.938Z,16.80
2022-10-22T13:11:58.191Z,17.00
2022-10-22T13:14:24.797Z,17.30
2022-10-22T13:17:03.596Z,17.50
2022-10-22T13:19:47.597Z,17.60
2022-10-22T13:22:23.370Z,17.40
2022-10-22T13:24:51.171Z,17.80
2022-10-22T13:27:17.965Z,17.80
2022-10-22T13:29:44.800Z,17.60
2022-10-22T13:32:40.000Z,17.70
2022-10-22T13:35:06.734Z,17.40
2022-10-22T13:37:34.179Z,17.40
2022-10-22T13:40:00.893Z,17.70
2022-10-22T13:42:27.497Z,18.10
2022-10-22T13:44:54.130Z,18.60
2022-10-22T13:47:28.601Z,18.90
2022-10-22T13:49:58.202Z,19.70
2022-10-22T13:52:28.652Z,20.10
2022-10-22T13:54:55.288Z,20.70
2022-10-22T13:57:21.918Z,20.60
2022-10-22T13:59:49.622Z,21.20
2022-10-22T14:02:16.493Z,21.80
2022-10-22T14:04:43.617Z,22.20
2022-10-22T14:07:13.182Z,22.40
2022-10-22T14:09:39.900Z,21.90
2022-10-22T14:12:11.334Z,22.20
2022-10-22T14:14:38.252Z,22.40
2022-10-22T14:17:05.639Z,23.00
2022-10-22T14:19:32.325Z,23.30
2022-10-22T14:21:59.015Z,24.10
2022-10-22T14:24:25.645Z,25.20
2022-10-22T14:26:52.269Z,25.20
2022-10-22T14:29:18.877Z,25.10
2022-10-22T14:31:45.564Z,25.40
2022-10-22T14:34:13.434Z,25.50
2022-10-22T14:36:40.168Z,25.80
2022-10-22T14:39:06.836Z,26.60
2022-10-22T14:41:33.692Z,27.10
2022-10-22T14:44:00.362Z,27.70
2022-10-22T14:46:27.041Z,28.10
2022-10-22T14:48:53.669Z,27.90
2022-10-22T14:51:21.113Z,27.20
2022-10-22T14:53:48.125Z,25.40
2022-10-22T14:56:16.066Z,24.70
2022-10-22T14:58:42.722Z,24.80
2022-10-22T15:01:09.430Z,25.30
2022-10-22T15:03:36.330Z,25.60
2022-10-22T15:06:03.059Z,24.90
2022-10-22T15:08:29.977Z,24.20
2022-10-22T15:11:00.752Z,25.30
2022-10-22T15:13:28.917Z,25.70
2022-10-22T15:15:56.078Z,26.20
2022-10-22T15:18:23.325Z,26.10
2022-10-22T15:21:00.126Z,26.10
2022-10-22T15:23:27.358Z,26.40
2022-10-22T15:25:54.588Z,26.10
2022-10-22T15:28:21.403Z,25.40
2022-10-22T15:30:59.668Z,24.90
2022-10-22T15:33:28.020Z,24.80
2022-10-22T15:35:55.729Z,25.00
2022-10-22T15:38:26.665Z,24.90
2022-10-22T15:41:07.376Z,23.50
2022-10-22T15:43:34.999Z,22.10
2022-10-22T15:46:16.842Z,20.70
2022-10-22T15:48:43.920Z,19.90
2022-10-22T15:51:16.643Z,19.10
2022-10-22T15:53:43.577Z,18.60
2022-10-22T15:56:11.979Z,18.20
2022-10-22T15:58:39.538Z,17.80
2022-10-22T16:01:12.183Z,17.50
2022-10-22T16:03:39.780Z,17.20
2022-10-22T16:06:08.150Z,16.90
2022-10-22T16:08:35.119Z,16.70
2022-10-22T16:11:01.861Z,16.50
2022-10-22T16:13:28.588Z,16.40
2022-10-22T16:15:55.373Z,16.20
2022-10-22T16:18:23.530Z,16.00
2022-10-22T16:20:50.287Z,15.90
2022-10-22T16:23:18.845Z,15.80
2022-10-22T16:25:46.343Z,15.60
2022-10-22T16:28:13.620Z,15.40
2022-10-22T16:30:41.575Z,15.30
2022-10-22T16:33:09.660Z,15.20
2022-10-22T16:35:41.287Z,15.00
2022-10-22T16:38:10.202Z,14.60
2022-10-22T16:40:37.221Z,14.20
2022-10-22T16:43:04.006Z,14.10
2022-10-22T16:45:30.720Z,14.00
2022-10-22T16:47:57.477Z,13.80
2022-10-22T16:50:24.235Z,13.60
2022-10-22T16:52:50.963Z,13.30
2022-10-22T16:55:17.894Z,13.30
2022-10-22T16:57:51.124Z,13.30
2022-10-22T17:00:18.184Z,13.30
2022-10-22T17:02:44.912Z,13.20
2022-10-22T17:05:11.622Z,13.00
2022-10-22T17:07:38.308Z,12.90
2022-10-22T17:10:05.547Z,12.90
2022-10-22T17:12:35.256Z,12.80
2022-10-22T17:15:04.152Z,12.80
2022-10-22T17:17:31.182Z,12.70
2022-10-22T17:19:57.941Z,12.80
2022-10-22T17:22:24.997Z,12.80
2022-10-22T17:25:15.073Z,12.60
2022-10-22T17:27:43.358Z,12.20
2022-10-22T17:30:14.523Z,12.20
2022-10-22T17:32:41.295Z,12.20
2022-10-22T17:35:09.024Z,12.20
2022-10-22T17:37:36.314Z,12.20
2022-10-22T17:40:04.978Z,12.20
2022-10-22T17:42:31.895Z,12.10
2022-10-22T17:44:58.630Z,12.10
2022-10-22T17:47:25.349Z,12.00
2022-10-22T17:49:52.201Z,12.00
2022-10-22T17:52:19.081Z,11.90
2022-10-22T17:54:49.247Z,11.80
2022-10-22T17:57:16.018Z,11.90
2022-10-22T17:59:42.835Z,11.80
2022-10-22T18:02:16.711Z,11.70
2022-10-22T18:04:44.001Z,11.70
2022-10-22T18:07:10.753Z,11.60
2022-10-22T18:09:38.882Z,11.60
2022-10-22T18:12:06.152Z,11.50
2022-10-22T18:14:32.998Z,11.60
2022-10-22T18:17:02.582Z,11.50
2022-10-22T18:19:30.272Z,11.30
2022-10-22T18:21:57.014Z,11.10
2022-10-22T18:24:23.710Z,11.10
2022-10-22T18:26:50.511Z,11.10
2022-10-22T18:29:19.029Z,11.20
2022-10-22T18:31:45.967Z,11.10
2022-10-22T18:34:13.083Z,11.10
2022-10-22T18:36:41.194Z,11.10
2022-10-22T18:39:08.143Z,11.00
2022-10-22T18:41:35.879Z,10.80
2022-10-22T18:44:05.308Z,10.60
2022-10-22T18:46:34.804Z,10.60
2022-10-22T18:49:01.601Z,10.60
2022-10-22T18:51:30.885Z,10.60
2022-10-22T18:54:05.513Z,10.50
2022-10-22T18:56:44.806Z,10.60
2022-10-22T18:59:18.614Z,10.70
2022-10-22T19:01:45.356Z,10.60
2022-10-22T19:04:13.590Z,10.40
2022-10-22T19:06:45.120Z,10.30
2022-10-22T19:09:13.893Z,10.30
2022-10-22T19:11:40.781Z,10.30
2022-10-22T19:14:07.461Z,10.20
2022-10-22T19:16:35.048Z,10.30
2022-10-22T19:19:07.037Z,10.30
2022-10-22T19:21:35.284Z,10.20
2022-10-22T19:24:02.418Z,10.20
2022-10-22T19:26:30.587Z,10.30
2022-10-22T19:29:00.510Z,10.20
2022-10-22T19:31:29.883Z,10.20
2022-10-22T19:33:57.600Z,10.10
2022-10-22T19:36:25.629Z,10.10
2022-10-22T19:38:52.496Z,10.20
2022-10-22T19:41:21.089Z,10.20
2022-10-22T19:43:50.686Z,10.10
2022-10-22T19:46:18.321Z,10.00
2022-10-22T19:51:22.621Z,9.90
2022-10-22T19:53:49.614Z,9.90
2022-10-22T19:56:18.987Z,9.80
2022-10-22T19:58:46.136Z,9.90
2022-10-22T20:01:15.605Z,9.90
2022-10-22T20:03:42.768Z,9.90
2022-10-22T20:06:11.723Z,9.90
2022-10-22T20:08:39.264Z,9.80
2022-10-22T20:11:08.647Z,9.80
2022-10-22T20:13:36.209Z,9.80
2022-10-22T20:16:03.869Z,9.90
2022-10-22T20:18:33.914Z,9.90
2022-10-22T20:21:08.424Z,9.90
2022-10-22T20:23:35.482Z,9.90
2022-10-22T20:26:02.252Z,9.90
2022-10-22T20:28:28.962Z,9.90
2022-10-22T20:30:55.665Z,9.90
2022-10-22T20:33:22.610Z,9.90
2022-10-22T20:36:00.185Z,9.80
2022-10-22T20:38:27.403Z,9.80
2022-10-22T20:41:06.634Z,9.70
2022-10-22T20:43:34.056Z,9.70
2022-10-22T20:46:00.974Z,9.70
2022-10-22T20:48:31.198Z,9.80
2022-10-22T20:50:59.654Z,9.80
2022-10-22T20:53:27.184Z,9.80
2022-10-22T20:55:57.345Z,9.80
2022-10-22T20:58:26.691Z,9.70
2022-10-22T21:00:55.305Z,9.60
2022-10-22T21:03:22.683Z,9.60
2022-10-22T21:05:49.519Z,9.60
2022-10-22T21:08:17.509Z,9.50
2022-10-22T21:10:48.976Z,9.50
2022-10-22T21:13:19.085Z,9.50
2022-10-22T21:15:45.882Z,9.50
2022-10-22T21:18:12.668Z,9.40
2022-10-22T21:20:40.254Z,9.40
2022-10-22T21:23:07.553Z,9.40
2022-10-22T21:25:38.342Z,9.40
2022-10-22T21:28:07.318Z,9.30
2022-10-22T21:30:33.995Z,9.20
2022-10-22T21:33:00.655Z,9.10
2022-10-22T21:35:27.355Z,9.00
2022-10-22T21:37:54.096Z,9.00
2022-10-22T21:40:21.856Z,9.10
2022-10-22T21:42:50.218Z,9.00
2022-10-22T21:45:19.993Z,9.00
2022-10-22T21:47:48.865Z,9.10
2022-10-22T21:50:15.641Z,9.10
2022-10-22T21:52:42.320Z,9.10
2022-10-22T21:55:09.335Z,9.00
2022-10-22T21:57:36.237Z,9.00
2022-10-22T22:00:04.960Z,9.00
2022-10-22T22:02:32.149Z,9.00
2022-10-22T22:04:58.810Z,9.00
2022-10-22T22:07:25.569Z,9.00
2022-10-22T22:09:52.264Z,9.00
2022-10-22T22:12:20.458Z,9.00
2022-10-22T22:14:47.487Z,8.70
2022-10-22T22:17:16.387Z,8.70
2022-10-22T22:19:43.064Z,8.70
2022-10-22T22:22:09.761Z,8.80
2022-10-22T22:24:38.285Z,8.80
2022-10-22T22:27:05.080Z,8.80
2022-10-22T22:29:31.810Z,8.70
2022-10-22T22:31:58.542Z,8.70
2022-10-22T22:34:25.208Z,8.80
2022-10-22T22:36:51.895Z,8.80
2022-10-22T22:39:20.693Z,8.80
2022-10-22T22:41:47.991Z,8.90
2022-10-22T22:44:15.315Z,8.90
2022-10-22T22:46:42.605Z,8.80
2022-10-22T22:49:09.641Z,8.70
2022-10-22T22:51:36.431Z,8.60
2022-10-22T22:54:03.143Z,8.50
2022-10-22T22:56:31.933Z,8.50
2022-10-22T22:58:58.901Z,8.50
2022-10-22T23:01:37.016Z,8.50
2022-10-22T23:04:25.231Z,8.50
2022-10-22T23:06:52.436Z,8.50
2022-10-22T23:11:51.928Z,8.40
2022-10-22T23:14:19.759Z,8.20
2022-10-22T23:16:50.489Z,8.20
2022-10-22T23:19:20.835Z,8.20
2022-10-22T23:21:55.400Z,8.20
2022-10-22T23:24:25.588Z,8.20
2022-10-22T23:26:54.310Z,8.10
2022-10-22T23:29:24.204Z,8.10
2022-10-22T23:31:52.057Z,8.20
2022-10-22T23:34:24.329Z,8.20
2022-10-22T23:36:51.759Z,8.10
2022-10-22T23:39:21.472Z,8.10
2022-10-22T23:41:48.184Z,8.00
2022-10-22T23:44:14.854Z,8.00
2022-10-22T23:46:41.574Z,8.00
2022-10-22T23:49:09.837Z,7.90
2022-10-22T23:51:37.229Z,7.80
2022-10-22T23:54:06.655Z,7.70
2022-10-22T23:56:33.747Z,7.70
2022-10-22T23:59:00.477Z,7.70
